Time;durP1;ratioP1;P1;durP2;ratioP2;P2;SDS_P1;SDS_P2;PMS_P1;PMS_P2;Temp;Humidity;BMP_temperature;BMP_pressure;BME280_temperature;BME280_humidity;BME280_pressure;Samples;Min_cycle;Max_cycle;Signal;HPM_P1;HPM_P2
2023/01/18 00:03:34;;;;;;;0.00;0.00;;;;;;;-146.30;100.00;58188.94;10432898;28;20075;-79
2023/01/18 00:08:37;;;;;;;0.20;0.20;;;;;;;-146.30;100.00;58188.94;10435177;28;20492;-79
2023/01/18 00:13:40;;;;;;;0.00;0.00;;;;;;;-146.30;100.00;58188.94;10429707;28;20149;-79
2023/01/18 00:18:42;;;;;;;0.20;0.20;;;;;;;-146.30;100.00;58188.94;10458222;28;20079;-86
2023/01/18 00:23:44;;;;;;;0.00;0.00;;;;;;;-146.30;100.00;58188.94;10394749;28;20444;-87
2023/01/18 00:28:46;;;;;;;0.30;0.30;;;;;;;-146.30;100.00;58188.94;10418397;28;20477;-87
2023/01/18 00:33:49;;;;;;;0.45;0.45;;;;;;;-146.30;100.00;58188.94;10401768;28;20038;-86
2023/01/18 00:39:18;;;;;;;0.00;0.00;;;;;;;-146.30;100.00;58188.94;10417472;28;20095;-84
2023/01/18 00:44:20;;;;;;;0.43;0.43;;;;;;;-146.30;100.00;58188.94;10406319;28;20073;-86
2023/01/18 00:49:22;;;;;;;0.05;0.05;;;;;;;-146.30;100.00;58188.94;10418155;28;20060;-85
2023/01/18 00:54:37;;;;;;;0.03;0.03;;;;;;;-146.30;100.00;58188.94;10376280;28;20057;-85
2023/01/18 00:59:39;;;;;;;0.98;0.98;;;;;;;-146.30;100.00;58188.94;10410204;28;20073;-85
2023/01/18 01:10:07;;;;;;;0.30;0.30;;;;;;;-146.30;100.00;58188.94;10415385;28;20079;-84
2023/01/18 01:26:06;;;;;;;1.77;1.35;;;;;;;-146.30;100.00;58188.94;10402007;28;20058;-86
2023/01/18 01:31:11;;;;;;;0.35;0.35;;;;;;;-146.30;100.00;58188.94;10413515;28;20038;-86
2023/01/18 01:36:15;;;;;;;0.20;0.20;;;;;;;-146.30;100.00;58188.94;10419982;28;20049;-86
2023/01/18 01:41:24;;;;;;;0.35;0.35;;;;;;;-146.30;100.00;58188.94;10393191;28;20041;-86
2023/01/18 01:46:51;;;;;;;0.10;0.10;;;;;;;-146.30;100.00;58188.94;10407347;28;20034;-86
2023/01/18 01:52:01;;;;;;;0.85;0.57;;;;;;;-146.30;100.00;58188.94;10408286;28;20049;-87
2023/01/18 01:57:14;;;;;;;;;;;;;;;-146.30;100.00;58188.94;10415445;28;20058;-86
2023/01/18 02:02:15;;;;;;;0.47;0.47;;;;;;;-146.30;100.00;58188.94;10398467;28;19971;-86
2023/01/18 02:07:18;;;;;;;0.25;0.25;;;;;;;-146.30;100.00;58188.94;10415081;28;20056;-86
2023/01/18 02:12:19;;;;;;;0.20;0.20;;;;;;;-146.30;100.00;58188.94;10398568;28;20414;-86
2023/01/18 02:17:57;;;;;;;0.10;0.10;;;;;;;-146.30;100.00;58188.94;10415106;28;20049;-86
2023/01/18 02:23:14;;;;;;;0.55;0.25;;;;;;;-146.30;100.00;58188.94;10422757;28;20049;-86
2023/01/18 02:28:32;;;;;;;0.52;0.52;;;;;;;-146.30;100.00;58188.94;10400715;28;20049;-85
2023/01/18 02:33:33;;;;;;;0.22;0.22;;;;;;;-146.30;100.00;58188.94;10407019;28;20052;-85
2023/01/18 02:38:45;;;;;;;0.20;0.20;;;;;;;-146.30;100.00;58188.94;10440191;28;20071;-86
2023/01/18 02:49:21;;;;;;;0.20;0.20;;;;;;;-146.30;100.00;58188.94;10412201;28;20050;-85
2023/01/18 02:54:23;;;;;;;0.55;0.55;;;;;;;-146.30;100.00;58188.94;10391909;28;20049;-85
2023/01/18 02:59:38;;;;;;;0.00;0.00;;;;;;;-146.30;100.00;58188.94;10408937;28;20092;-85
2023/01/18 03:04:43;;;;;;;1.25;1.20;;;;;;;-146.30;100.00;58188.94;10422285;28;20511;-82
2023/01/18 03:09:46;;;;;;;0.03;0.03;;;;;;;-146.30;100.00;58188.94;10438798;28;20096;-85
2023/01/18 03:15:09;;;;;;;1.60;0.75;;;;;;;-146.30;100.00;58188.94;10411339;28;20068;-85
2023/01/18 03:20:15;;;;;;;2.90;1.30;;;;;;;-146.30;100.00;58188.94;10407829;28;20421;-83
2023/01/18 03:25:21;;;;;;;0.03;0.03;;;;;;;-146.30;100.00;58188.94;10401314;28;20046;-84
2023/01/18 03:35:43;;;;;;;0.10;0.10;;;;;;;-146.30;100.00;58188.94;10417904;28;20057;-84
2023/01/18 03:40:45;;;;;;;1.00;0.95;;;;;;;-146.30;100.00;58188.94;10430991;28;20061;-85
2023/01/18 03:45:49;;;;;;;0.10;0.10;;;;;;;-146.30;100.00;58188.94;10416888;28;20050;-85
2023/01/18 03:50:59;;;;;;;0.10;0.10;;;;;;;-146.30;100.00;58188.94;10400586;28;20107;-84
2023/01/18 03:56:07;;;;;;;1.13;0.70;;;;;;;-146.30;100.00;58188.94;10416768;28;20056;-84
2023/01/18 04:01:08;;;;;;;0.28;0.28;;;;;;;-146.30;100.00;58188.94;10379980;28;20080;-84
2023/01/18 04:06:11;;;;;;;0.20;0.20;;;;;;;-146.30;100.00;58188.94;10416285;28;20075;-84
2023/01/18 04:11:12;;;;;;;0.10;0.10;;;;;;;-146.30;100.00;58188.94;10400138;28;20041;-85
2023/01/18 04:16:20;;;;;;;0.38;0.38;;;;;;;-146.30;100.00;58188.94;10416028;28;20107;-84
2023/01/18 04:21:21;;;;;;;0.20;0.20;;;;;;;-146.30;100.00;58188.94;10408293;28;20046;-84
2023/01/18 04:26:24;;;;;;;0.10;0.10;;;;;;;-146.30;100.00;58188.94;10394261;28;20149;-84
2023/01/18 04:31:25;;;;;;;0.25;0.25;;;;;;;-146.30;100.00;58188.94;10335772;28;1095540;-83
2023/01/18 04:36:27;;;;;;;1.60;1.50;;;;;;;-146.30;100.00;58188.94;10417201;28;20053;-84
2023/01/18 04:41:29;;;;;;;0.10;0.10;;;;;;;-146.30;100.00;58188.94;10404661;28;20586;-83
2023/01/18 04:46:30;;;;;;;0.40;0.40;;;;;;;-146.30;100.00;58188.94;10405346;28;20048;-84
2023/01/18 04:51:32;;;;;;;0.10;0.10;;;;;;;-146.30;100.00;58188.94;10415211;28;20136;-84
2023/01/18 04:56:34;;;;;;;0.30;0.30;;;;;;;-146.30;100.00;58188.94;10423317;28;20576;-83
2023/01/18 05:01:35;;;;;;;0.10;0.10;;;;;;;-146.30;100.00;58188.94;10417740;28;20052;-84
2023/01/18 05:06:37;;;;;;;0.10;0.10;;;;;;;-146.30;100.00;58188.94;10416399;28;20547;-84
2023/01/18 05:11:40;;;;;;;2.25;1.17;;;;;;;-146.30;100.00;58188.94;10416235;28;20041;-84
2023/01/18 05:16:42;;;;;;;0.22;0.22;;;;;;;-146.30;100.00;58188.94;10445005;28;20111;-83
2023/01/18 05:21:43;;;;;;;0.05;0.05;;;;;;;-146.30;100.00;58188.94;10425798;28;20484;-81
2023/01/18 05:26:45;;;;;;;0.40;0.40;;;;;;;-146.30;100.00;58188.94;10429991;28;20055;-81
2023/01/18 05:31:46;;;;;;;0.00;0.00;;;;;;;-146.30;100.00;58188.94;10428969;28;20046;-81
2023/01/18 05:36:48;;;;;;;0.10;0.10;;;;;;;-146.30;100.00;58188.94;10427261;28;20042;-81
2023/01/18 05:41:50;;;;;;;2.00;1.75;;;;;;;-146.30;100.00;58188.94;10445176;28;20049;-81
2023/01/18 05:46:51;;;;;;;0.38;0.38;;;;;;;-146.30;100.00;58188.94;10408453;28;20077;-80
2023/01/18 05:51:53;;;;;;;2.03;1.85;;;;;;;-146.30;100.00;58188.94;10408132;28;20073;-80
2023/01/18 05:56:55;;;;;;;1.00;0.68;;;;;;;-146.30;100.00;58188.94;10400889;28;20041;-82
2023/01/18 06:01:56;;;;;;;0.10;0.10;;;;;;;-146.30;100.00;58188.94;10395698;28;20101;-81
2023/01/18 06:06:58;;;;;;;0.77;0.75;;;;;;;-146.30;100.00;58188.94;10428433;28;20497;-77
2023/01/18 06:12:00;;;;;;;0.57;0.57;;;;;;;-146.30;100.00;58188.94;10416245;28;20099;-77
2023/01/18 06:17:01;;;;;;;0.32;0.32;;;;;;;-146.30;100.00;58188.94;10407820;28;20100;-77
2023/01/18 06:22:03;;;;;;;0.00;0.00;;;;;;;-146.30;100.00;58188.94;10396155;28;20088;-78
2023/01/18 06:27:04;;;;;;;0.80;0.52;;;;;;;-146.30;100.00;58188.94;10434445;28;20505;-77
2023/01/18 06:32:06;;;;;;;1.45;1.35;;;;;;;-146.30;100.00;58188.94;10425778;28;20056;-78
2023/01/18 06:37:09;;;;;;;0.30;0.30;;;;;;;-146.30;100.00;58188.94;10437703;28;20064;-77
2023/01/18 06:42:10;;;;;;;0.20;0.20;;;;;;;-146.30;100.00;58188.94;10431699;28;20045;-77
2023/01/18 06:47:14;;;;;;;0.20;0.20;;;;;;;-146.30;100.00;58188.94;10419542;28;20381;-78
2023/01/18 06:52:16;;;;;;;0.00;0.00;;;;;;;-146.30;100.00;58188.94;10381111;28;20046;-78
2023/01/18 06:57:18;;;;;;;0.00;0.00;;;;;;;-146.30;100.00;58188.94;10408521;28;20048;-77
2023/01/18 07:02:20;;;;;;;0.80;0.80;;;;;;;-146.30;100.00;58188.94;10416948;28;20049;-80
2023/01/18 07:07:21;;;;;;;0.80;0.80;;;;;;;-146.30;100.00;58188.94;10432513;28;20041;-80
2023/01/18 07:12:23;;;;;;;1.08;0.60;;;;;;;-146.30;100.00;58188.94;10400082;28;20132;-80
2023/01/18 07:17:27;;;;;;;0.00;0.00;;;;;;;-146.30;100.00;58188.94;10419017;28;20080;-81
2023/01/18 07:22:29;;;;;;;0.05;0.05;;;;;;;-146.30;100.00;58188.94;10435361;28;20080;-81
2023/01/18 07:27:30;;;;;;;3.10;1.38;;;;;;;-146.30;100.00;58188.94;10448423;28;20045;-81
2023/01/18 07:32:32;;;;;;;0.40;0.40;;;;;;;-146.30;100.00;58188.94;10443211;28;20049;-81
2023/01/18 07:37:35;;;;;;;1.77;1.05;;;;;;;-146.30;100.00;58188.94;10458384;28;20103;-81
2023/01/18 07:42:36;;;;;;;0.20;0.20;;;;;;;-146.30;100.00;58188.94;10446198;28;20041;-81
2023/01/18 07:47:41;;;;;;;0.10;0.10;;;;;;;-146.30;100.00;58188.94;10454358;28;20044;-83
2023/01/18 07:52:43;;;;;;;0.43;0.38;;;;;;;-146.30;100.00;58188.94;10432487;28;20439;-83
2023/01/18 07:57:45;;;;;;;0.38;0.30;;;;;;;-146.30;100.00;58188.94;10420523;28;20045;-83
2023/01/18 08:02:51;;;;;;;0.10;0.10;;;;;;;-146.30;100.00;58188.94;10410842;28;20136;-83
2023/01/18 08:07:53;;;;;;;1.55;0.43;;;;;;;-146.30;100.00;58188.94;10420459;28;20054;-83
2023/01/18 08:12:55;;;;;;;0.30;0.30;;;;;;;-146.30;100.00;58188.94;10437387;28;20041;-82
2023/01/18 08:18:04;;;;;;;1.25;1.15;;;;;;;-146.30;100.00;58188.94;10424185;28;20065;-83
2023/01/18 08:23:05;;;;;;;0.75;0.32;;;;;;;-146.30;100.00;58188.94;10413406;28;20049;-82
2023/01/18 08:28:08;;;;;;;0.38;0.32;;;;;;;-146.30;100.00;58188.94;10417665;28;20044;-82
2023/01/18 08:33:09;;;;;;;1.08;1.02;;;;;;;-146.30;100.00;58188.94;10415862;28;20124;-82
2023/01/18 08:38:13;;;;;;;0.10;0.10;;;;;;;-146.30;100.00;58188.94;10410762;28;20091;-82
2023/01/18 08:43:15;;;;;;;0.10;0.10;;;;;;;-146.30;100.00;58188.94;10407219;28;20145;-82
2023/01/18 08:48:16;;;;;;;0.30;0.30;;;;;;;-146.30;100.00;58188.94;10412885;28;20588;-82
2023/01/18 08:53:18;;;;;;;0.32;0.32;;;;;;;-146.30;100.00;58188.94;10411996;28;20519;-81
2023/01/18 08:58:19;;;;;;;0.30;0.30;;;;;;;-146.30;100.00;58188.94;10404486;28;20056;-81
2023/01/18 09:03:21;;;;;;;0.10;0.10;;;;;;;-146.30;100.00;58188.94;10401185;28;20045;-80
2023/01/18 09:08:22;;;;;;;0.20;0.20;;;;;;;-146.30;100.00;58188.94;10397833;28;20041;-80
2023/01/18 09:13:24;;;;;;;0.30;0.30;;;;;;;-146.30;100.00;58188.94;10398208;28;20045;-80
2023/01/18 09:18:28;;;;;;;3.97;1.70;;;;;;;-146.30;100.00;58188.94;10398499;28;20041;-81
2023/01/18 09:23:30;;;;;;;0.57;0.45;;;;;;;-146.30;100.00;58188.94;10427543;28;20044;-81
2023/01/18 09:28:32;;;;;;;0.00;0.00;;;;;;;-146.30;100.00;58188.94;10411317;28;20072;-81
2023/01/18 09:33:34;;;;;;;0.13;0.13;;;;;;;-146.30;100.00;58188.94;10413538;28;20703;-81
2023/01/18 09:38:40;;;;;;;0.30;0.30;;;;;;;-146.30;100.00;58188.94;10406856;28;20133;-81
2023/01/18 09:43:48;;;;;;;0.17;0.17;;;;;;;-146.30;100.00;58188.94;10409226;28;20132;-85
2023/01/18 09:48:56;;;;;;;0.70;0.70;;;;;;;-146.30;100.00;58188.94;10411483;28;20102;-85
2023/01/18 09:54:11;;;;;;;0.20;0.20;;;;;;;-146.30;100.00;58188.94;10416730;28;20087;-84
2023/01/18 09:59:42;;;;;;;0.25;0.20;;;;;;;-146.30;100.00;58188.94;10408210;28;20076;-85
2023/01/18 10:04:48;;;;;;;0.98;0.70;;;;;;;-146.30;100.00;58188.94;10400288;28;20077;-84
2023/01/18 10:09:54;;;;;;;4.57;1.27;;;;;;;-146.30;100.00;58188.94;10410616;28;20452;-84
2023/01/18 10:15:06;;;;;;;1.75;1.65;;;;;;;-146.30;100.00;58188.94;10424304;28;20129;-85
2023/01/18 10:20:25;;;;;;;1.02;0.95;;;;;;;-146.30;100.00;58188.94;10408413;28;20053;-85
2023/01/18 10:25:31;;;;;;;0.40;0.40;;;;;;;-146.30;100.00;58188.94;10410384;28;20037;-83
2023/01/18 10:30:42;;;;;;;0.13;0.13;;;;;;;-146.30;100.00;58188.94;10408690;28;20056;-84
2023/01/18 10:35:52;;;;;;;0.73;0.70;;;;;;;-146.30;100.00;58188.94;10401722;28;20531;-85
2023/01/18 10:40:59;;;;;;;0.45;0.45;;;;;;;-146.30;100.00;58188.94;10408013;28;20116;-84
2023/01/18 10:46:01;;;;;;;0.65;0.55;;;;;;;-146.30;100.00;58188.94;10379144;28;20049;-84
2023/01/18 10:51:05;;;;;;;1.55;0.68;;;;;;;-146.30;100.00;58188.94;10413188;28;20061;-83
2023/01/18 10:56:17;;;;;;;0.45;0.45;;;;;;;-146.30;100.00;58188.94;10410532;28;20543;-82
2023/01/18 11:01:27;;;;;;;2.17;1.98;;;;;;;-146.30;100.00;58188.94;10431061;28;20523;-83
2023/01/18 11:06:29;;;;;;;0.15;0.15;;;;;;;-146.30;100.00;58188.94;10431466;28;20050;-80
2023/01/18 11:17:01;;;;;;;0.43;0.43;;;;;;;-146.30;100.00;58188.94;10408837;28;20630;-81
2023/01/18 11:22:11;;;;;;;0.98;0.57;;;;;;;-146.30;100.00;58188.94;10413661;28;20099;-81
2023/01/18 11:27:22;;;;;;;1.93;0.87;;;;;;;-146.30;100.00;58188.94;10411340;28;20463;-81
2023/01/18 11:32:27;;;;;;;2.72;0.82;;;;;;;-146.30;100.00;58188.94;10416854;28;20075;-80
2023/01/18 11:37:36;;;;;;;0.15;0.08;;;;;;;-146.30;100.00;58188.94;10414182;28;20123;-81
2023/01/18 11:42:39;;;;;;;0.22;0.22;;;;;;;-146.30;100.00;58188.94;10417876;28;20129;-81
2023/01/18 11:47:52;;;;;;;1.95;1.67;;;;;;;-146.30;100.00;58188.94;10416342;28;20042;-81
2023/01/18 11:53:15;;;;;;;0.10;0.10;;;;;;;-146.30;100.00;58188.94;10419579;28;20048;-81
2023/01/18 11:58:35;;;;;;;0.15;0.15;;;;;;;-146.30;100.00;58188.94;10407329;28;20049;-81
2023/01/18 12:03:53;;;;;;;1.43;1.33;;;;;;;-146.30;100.00;58188.94;10413285;28;20033;-81
2023/01/18 12:09:09;;;;;;;0.68;0.68;;;;;;;-146.30;100.00;58188.94;10416156;28;20613;-81
2023/01/18 12:14:35;;;;;;;0.77;0.77;;;;;;;-146.30;100.00;58188.94;10411552;28;20033;-82
2023/01/18 12:20:15;;;;;;;1.17;0.65;;;;;;;-146.30;100.00;58188.94;10410056;28;20083;-82
2023/01/18 12:25:54;;;;;;;0.05;0.05;;;;;;;-146.30;100.00;58188.94;10411771;28;20045;-81
2023/01/18 12:31:42;;;;;;;1.83;1.15;;;;;;;-146.30;100.00;58188.94;10404712;28;20045;-83
2023/01/18 12:37:14;;;;;;;0.35;0.35;;;;;;;-146.30;100.00;58188.94;10427383;28;20053;-81
2023/01/18 12:42:40;;;;;;;0.40;0.40;;;;;;;-146.30;100.00;58188.94;10408248;28;20049;-81
2023/01/18 12:47:53;;;;;;;2.42;1.98;;;;;;;-146.30;100.00;58188.94;10408845;28;20038;-81
2023/01/18 12:53:02;;;;;;;0.75;0.75;;;;;;;-146.30;100.00;58188.94;10412335;28;20079;-82
2023/01/18 12:58:05;;;;;;;0.63;0.63;;;;;;;-146.30;100.00;58188.94;10403517;28;20552;-81
2023/01/18 13:03:15;;;;;;;0.52;0.40;;;;;;;-146.30;100.00;58188.94;10410205;28;20144;-81
2023/01/18 13:08:46;;;;;;;0.43;0.30;;;;;;;-146.30;100.00;58188.94;10410982;28;20069;-83
2023/01/18 13:13:58;;;;;;;0.40;0.40;;;;;;;-146.30;100.00;58188.94;10407449;28;20477;-83
2023/01/18 13:19:11;;;;;;;0.00;0.00;;;;;;;-146.30;100.00;58188.94;10400724;28;20157;-82
2023/01/18 13:24:25;;;;;;;0.85;0.68;;;;;;;-146.30;100.00;58188.94;10431792;28;20044;-82
2023/01/18 13:29:28;;;;;;;0.70;0.70;;;;;;;-146.30;100.00;58188.94;10431312;28;20098;-82
2023/01/18 13:34:35;;;;;;;0.45;0.35;;;;;;;-146.30;100.00;58188.94;10411671;28;20559;-82
2023/01/18 13:39:51;;;;;;;0.10;0.10;;;;;;;-146.30;100.00;58188.94;10413686;28;20073;-82
2023/01/18 13:45:13;;;;;;;0.47;0.47;;;;;;;-146.30;100.00;58188.94;10410728;28;20053;-82
2023/01/18 13:50:27;;;;;;;0.50;0.30;;;;;;;-146.30;100.00;58188.94;10406547;28;20107;-82
2023/01/18 13:55:30;;;;;;;1.75;0.40;;;;;;;-146.30;100.00;58188.94;10412689;28;20091;-81
2023/01/18 14:00:34;;;;;;;0.30;0.30;;;;;;;-146.30;100.00;58188.94;10416994;28;20056;-81
2023/01/18 14:05:41;;;;;;;0.00;0.00;;;;;;;-146.30;100.00;58188.94;10397490;28;20111;-83
2023/01/18 14:10:48;;;;;;;0.15;0.15;;;;;;;-146.30;100.00;58188.94;10411161;28;20049;-83
2023/01/18 14:15:52;;;;;;;0.50;0.50;;;;;;;-146.30;100.00;58188.94;10413868;28;20045;-83
2023/01/18 14:21:25;;;;;;;0.25;0.25;;;;;;;-146.30;100.00;58188.94;10413805;28;20047;-83
2023/01/18 14:26:31;;;;;;;0.75;0.50;;;;;;;-146.30;100.00;58188.94;10411251;28;20339;-83
2023/01/18 14:31:41;;;;;;;0.22;0.22;;;;;;;-146.30;100.00;58188.94;10434199;28;20057;-82
2023/01/18 14:36:43;;;;;;;0.00;0.00;;;;;;;-146.30;100.00;58188.94;10434712;28;20057;-84
2023/01/18 14:41:48;;;;;;;1.02;0.40;;;;;;;-146.30;100.00;58188.94;10410759;28;20460;-84
2023/01/18 14:46:55;;;;;;;0.43;0.20;;;;;;;-146.30;100.00;58188.94;10423029;28;20087;-85
2023/01/18 14:51:58;;;;;;;0.47;0.28;;;;;;;-146.30;100.00;58188.94;10449742;28;20580;-82
2023/01/18 14:57:02;;;;;;;0.52;0.32;;;;;;;-146.30;100.00;58188.94;10428855;28;20613;-84
2023/01/18 15:02:26;;;;;;;0.20;0.20;;;;;;;-146.30;100.00;58188.94;10421067;28;20049;-85
2023/01/18 15:07:32;;;;;;;1.20;0.65;;;;;;;-146.30;100.00;58188.94;10397168;28;20484;-83
2023/01/18 15:12:35;;;;;;;0.17;0.17;;;;;;;-146.30;100.00;58188.94;10417157;28;20128;-83
2023/01/18 15:17:36;;;;;;;0.80;0.43;;;;;;;-146.30;100.00;58188.94;10413386;28;20049;-81
2023/01/18 15:22:39;;;;;;;0.00;0.00;;;;;;;-146.30;100.00;58188.94;10431442;28;20056;-82
2023/01/18 15:27:47;;;;;;;0.70;0.20;;;;;;;-146.30;100.00;58188.94;10405952;28;20042;-82
2023/01/18 15:32:56;;;;;;;0.65;0.65;;;;;;;-146.30;100.00;58188.94;10422998;28;20044;-82
2023/01/18 15:37:58;;;;;;;0.08;0.08;;;;;;;-146.30;100.00;58188.94;10416950;28;20053;-81
2023/01/18 15:43:15;;;;;;;0.63;0.30;;;;;;;-146.30;100.00;58188.94;10416831;28;20077;-81
2023/01/18 15:48:19;;;;;;;0.10;0.10;;;;;;;-146.30;100.00;58188.94;10404385;28;20073;-81
2023/01/18 15:53:56;;;;;;;0.75;0.75;;;;;;;-146.30;100.00;58188.94;10428769;28;20065;-82
2023/01/18 15:59:00;;;;;;;0.20;0.20;;;;;;;-146.30;100.00;58188.94;10397161;28;20099;-83
2023/01/18 16:04:19;;;;;;;0.00;0.00;;;;;;;-146.30;100.00;58188.94;10398240;28;20077;-84
2023/01/18 16:09:21;;;;;;;0.00;0.00;;;;;;;-146.30;100.00;58188.94;10403425;28;20041;-85
2023/01/18 16:14:26;;;;;;;0.15;0.15;;;;;;;-146.30;100.00;58188.94;10414620;28;20083;-84
2023/01/18 16:19:31;;;;;;;0.22;0.22;;;;;;;-146.30;100.00;58188.94;10414006;28;20049;-84
2023/01/18 16:24:44;;;;;;;0.52;0.47;;;;;;;-146.30;100.00;58188.94;10433095;28;20064;-83
2023/01/18 16:29:47;;;;;;;0.00;0.00;;;;;;;-146.30;100.00;58188.94;10414286;28;20042;-84
2023/01/18 16:34:49;;;;;;;0.50;0.50;;;;;;;-146.30;100.00;58188.94;10394000;28;20045;-85
2023/01/18 16:39:53;;;;;;;0.10;0.10;;;;;;;-146.30;100.00;58188.94;10412428;28;20107;-83
2023/01/18 16:44:54;;;;;;;0.47;0.45;;;;;;;-146.30;100.00;58188.94;10417079;28;20111;-84
2023/01/18 16:49:58;;;;;;;0.10;0.10;;;;;;;-146.30;100.00;58188.94;10411718;28;20103;-86
2023/01/18 16:54:59;;;;;;;0.85;0.47;;;;;;;-146.30;100.00;58188.94;10416679;28;20045;-83
2023/01/18 17:00:01;;;;;;;0.95;0.50;;;;;;;-146.30;100.00;58188.94;10410329;28;20049;-84
2023/01/18 17:05:03;;;;;;;0.00;0.00;;;;;;;-146.30;100.00;58188.94;10412916;28;20041;-81
2023/01/18 17:10:49;;;;;;;0.08;0.08;;;;;;;-146.30;100.00;58188.94;10412365;28;20052;-83
2023/01/18 17:15:52;;;;;;;0.32;0.32;;;;;;;-146.30;100.00;58188.94;10403614;28;20500;-82
2023/01/18 17:20:54;;;;;;;0.03;0.03;;;;;;;-146.30;100.00;58188.94;10396382;28;20057;-83
2023/01/18 17:25:57;;;;;;;0.00;0.00;;;;;;;-146.30;100.00;58188.94;10404413;28;20069;-83
2023/01/18 17:30:59;;;;;;;0.00;0.00;;;;;;;-146.30;100.00;58188.94;10390727;28;20084;-83
2023/01/18 17:36:00;;;;;;;1.00;0.75;;;;;;;-146.30;100.00;58188.94;10410398;28;20515;-84
2023/01/18 17:41:03;;;;;;;0.40;0.40;;;;;;;-146.30;100.00;58188.94;10406598;28;20488;-82
2023/01/18 17:46:05;;;;;;;0.22;0.22;;;;;;;-146.30;100.00;58188.94;10405322;28;20041;-83
2023/01/18 17:51:09;;;;;;;0.15;0.15;;;;;;;-146.30;100.00;58188.94;10404702;28;20053;-83
2023/01/18 17:56:15;;;;;;;0.00;0.00;;;;;;;-146.30;100.00;58188.94;10407672;28;20438;-82
2023/01/18 18:01:17;;;;;;;1.65;0.90;;;;;;;-146.30;100.00;58188.94;10410404;28;20103;-82
2023/01/18 18:06:22;;;;;;;1.70;0.43;;;;;;;-146.30;100.00;58188.94;10405496;28;20647;-82
2023/01/18 18:11:31;;;;;;;0.10;0.10;;;;;;;-146.30;100.00;58188.94;10400849;28;20045;-83
2023/01/18 18:16:33;;;;;;;0.08;0.08;;;;;;;-146.30;100.00;58188.94;10398651;28;20076;-82
2023/01/18 18:21:46;;;;;;;;;;;;;;;-146.30;100.00;58188.94;10403551;28;20126;-83
2023/01/18 18:26:48;;;;;;;0.00;0.00;;;;;;;-146.30;100.00;58188.94;10398471;28;20135;-83
2023/01/18 18:31:50;;;;;;;0.20;0.20;;;;;;;-146.30;100.00;58188.94;10381906;28;20096;-82
2023/01/18 18:36:52;;;;;;;0.00;0.00;;;;;;;-146.30;100.00;58188.94;10391577;28;20045;-82
2023/01/18 18:41:54;;;;;;;0.40;0.40;;;;;;;-146.30;100.00;58188.94;10387200;28;20072;-81
2023/01/18 18:46:56;;;;;;;0.17;0.17;;;;;;;-146.30;100.00;58188.94;10399991;28;20460;-82
2023/01/18 18:51:59;;;;;;;0.13;0.13;;;;;;;-146.30;100.00;58188.94;10405769;28;20049;-82
2023/01/18 18:57:02;;;;;;;0.00;0.00;;;;;;;-146.30;100.00;58188.94;10415283;28;20037;-83
2023/01/18 19:02:04;;;;;;;2.60;1.80;;;;;;;-146.30;100.00;58188.94;10400694;28;20037;-82
2023/01/18 19:07:05;;;;;;;0.30;0.30;;;;;;;-146.30;100.00;58188.94;10389136;28;20049;-83
2023/01/18 19:12:07;;;;;;;0.15;0.15;;;;;;;-146.30;100.00;58188.94;10410231;28;20382;-85
2023/01/18 19:17:10;;;;;;;0.10;0.10;;;;;;;-146.30;100.00;58188.94;10393917;28;20046;-84
2023/01/18 19:22:19;;;;;;;0.00;0.00;;;;;;;-146.30;100.00;58188.94;10403274;28;20092;-86
2023/01/18 19:27:23;;;;;;;0.43;0.43;;;;;;;-146.30;100.00;58188.94;10415385;28;20117;-83
2023/01/18 19:32:24;;;;;;;0.03;0.03;;;;;;;-146.30;100.00;58188.94;10414873;28;20041;-83
2023/01/18 19:37:26;;;;;;;0.05;0.05;;;;;;;-146.30;100.00;58188.94;10412189;28;20485;-86
2023/01/18 19:42:28;;;;;;;0.90;0.47;;;;;;;-146.30;100.00;58188.94;10413986;28;20103;-85
2023/01/18 19:47:29;;;;;;;0.10;0.10;;;;;;;-146.30;100.00;58188.94;10395572;28;20129;-84
2023/01/18 19:52:32;;;;;;;0.30;0.30;;;;;;;-146.30;100.00;58188.94;10410647;28;20528;-84
2023/01/18 19:57:34;;;;;;;2.00;0.73;;;;;;;-146.30;100.00;58188.94;10418394;28;20041;-83
2023/01/18 20:02:42;;;;;;;6.03;1.20;;;;;;;-146.30;100.00;58188.94;10412401;28;20053;-83
2023/01/18 20:07:45;;;;;;;0.10;0.10;;;;;;;-146.30;100.00;58188.94;10417310;28;20044;-84
2023/01/18 20:12:47;;;;;;;0.00;0.00;;;;;;;-146.30;100.00;58188.94;10410950;28;20497;-85
2023/01/18 20:17:49;;;;;;;0.35;0.35;;;;;;;-146.30;100.00;58188.94;10397625;28;20041;-84
2023/01/18 20:22:51;;;;;;;0.40;0.40;;;;;;;-146.30;100.00;58188.94;10395874;28;20064;-84
2023/01/18 20:27:52;;;;;;;0.00;0.00;;;;;;;-146.30;100.00;58188.94;10414679;28;20136;-85
2023/01/18 20:32:54;;;;;;;0.10;0.10;;;;;;;-146.30;100.00;58188.94;10411224;28;20420;-84
2023/01/18 20:37:56;;;;;;;0.10;0.10;;;;;;;-146.30;100.00;58188.94;10412581;28;20520;-84
2023/01/18 20:42:57;;;;;;;2.33;0.77;;;;;;;-146.30;100.00;58188.94;10411452;28;20053;-85
2023/01/18 20:48:00;;;;;;;0.55;0.55;;;;;;;-146.30;100.00;58188.94;10421262;28;20045;-86
2023/01/18 20:53:01;;;;;;;0.50;0.28;;;;;;;-146.30;100.00;58188.94;10400778;28;20052;-86
2023/01/18 20:58:03;;;;;;;0.85;0.85;;;;;;;-146.30;100.00;58188.94;10391172;28;20045;-86
2023/01/18 21:03:05;;;;;;;9.90;1.45;;;;;;;-146.30;100.00;58188.94;10405134;28;20076;-85
2023/01/18 21:08:06;;;;;;;0.50;0.40;;;;;;;-146.30;100.00;58188.94;10406335;28;20137;-82
2023/01/18 21:13:10;;;;;;;0.00;0.00;;;;;;;-146.30;100.00;58188.94;10406943;28;20084;-83
2023/01/18 21:18:12;;;;;;;1.65;0.45;;;;;;;-146.30;100.00;58188.94;10423879;28;20073;-84
2023/01/18 21:23:14;;;;;;;0.10;0.10;;;;;;;-146.30;100.00;58188.94;10413696;28;20099;-84
2023/01/18 21:28:16;;;;;;;0.57;0.30;;;;;;;-146.30;100.00;58188.94;10412958;28;20045;-84
2023/01/18 21:33:18;;;;;;;4.95;0.73;;;;;;;-146.30;100.00;58188.94;10408721;28;20118;-83
2023/01/18 21:38:22;;;;;;;0.40;0.40;;;;;;;-146.30;100.00;58188.94;10407514;28;20037;-84
2023/01/18 21:48:45;;;;;;;0.00;0.00;;;;;;;-146.30;100.00;58188.94;10412812;28;20077;-84
2023/01/18 21:59:12;;;;;;;0.28;0.25;;;;;;;-146.30;100.00;58188.94;10405124;28;20103;-83
2023/01/18 22:09:38;;;;;;;0.10;0.10;;;;;;;-146.30;100.00;58188.94;10405877;28;20037;-84
2023/01/18 22:14:39;;;;;;;0.88;0.50;;;;;;;-146.30;100.00;58188.94;10398167;28;20042;-87
2023/01/18 22:19:43;;;;;;;0.82;0.73;;;;;;;-146.30;100.00;58188.94;10391952;28;20050;-85
2023/01/18 22:24:45;;;;;;;0.20;0.20;;;;;;;-146.30;100.00;58188.94;10424721;28;20038;-85
2023/01/18 22:29:46;;;;;;;0.30;0.30;;;;;;;-146.30;100.00;58188.94;10412648;28;20056;-85
2023/01/18 22:34:48;;;;;;;0.57;0.57;;;;;;;-146.30;100.00;58188.94;10412256;28;20045;-84
2023/01/18 22:39:50;;;;;;;0.63;0.52;;;;;;;-146.30;100.00;58188.94;10394113;28;20049;-86
2023/01/18 22:44:52;;;;;;;0.52;0.52;;;;;;;-146.30;100.00;58188.94;10414752;28;20080;-85
2023/01/18 22:49:56;;;;;;;0.30;0.30;;;;;;;-146.30;100.00;58188.94;10399047;28;20073;-80
2023/01/18 22:54:57;;;;;;;0.35;0.35;;;;;;;-146.30;100.00;58188.94;10426379;28;20480;-80
2023/01/18 22:59:59;;;;;;;0.00;0.00;;;;;;;-146.30;100.00;58188.94;10406845;28;20119;-80
2023/01/18 23:05:00;;;;;;;0.98;0.82;;;;;;;-146.30;100.00;58188.94;10401500;28;20477;-81
2023/01/18 23:10:02;;;;;;;0.35;0.35;;;;;;;-146.30;100.00;58188.94;10418871;28;20072;-80
2023/01/18 23:20:25;;;;;;;0.20;0.20;;;;;;;-146.30;100.00;58188.94;10414427;28;20037;-80
2023/01/18 23:25:27;;;;;;;2.05;1.85;;;;;;;-146.30;100.00;58188.94;10427701;28;20056;-82
2023/01/18 23:30:30;;;;;;;2.83;0.57;;;;;;;-146.30;100.00;58188.94;10424427;28;20065;-81
2023/01/18 23:35:32;;;;;;;1.30;1.27;;;;;;;-146.30;100.00;58188.94;10422108;28;20103;-81
2023/01/18 23:56:36;;;;;;;0.13;0.13;;;;;;;-146.30;100.00;58188.94;10414946;28;20558;-79
